Burtchville, Michigan
Current Conditions -  °F | °C
As of 7:18 AM on Thursday 29 Jan 2015 (Local Time) from KPHN Reporting Station
Overcast Overcast  
Wind Chill: 18°   Ceiling: 5000
Heat Index: 28°   Visibility: 10mi
Dew Point: 16°   Wind: 12mph
Humidity: 59%   Direction: 150°SSE
Pressure: 29.86"   Gusts: 17mph
Location:  43.0393°N, 82.4847°W
Report Text: KPHN 291218Z AUTO 15010G15KT 10SM OVC050 M02/M09 A2986 RMK AO2
Loading
Personal Weather Stations






























Interactive Weather Map New forecast layout! Learn more

10-Day Weather Forecast

Advertisements
Track Severe Weather on mobile